createdAt,value
2019-04-03T00:04:57.799Z,18.05
2019-04-03T00:10:01.784Z,17.20
2019-04-03T00:15:06.471Z,13.25
2019-04-03T00:25:13.126Z,10.85
2019-04-03T00:30:16.946Z,10.07
2019-04-03T00:35:23.205Z,10.30
2019-04-03T00:40:26.429Z,9.73
2019-04-03T00:45:30.211Z,11.80
2019-04-03T00:50:33.922Z,13.25
2019-04-03T00:55:37.696Z,12.60
2019-04-03T01:00:41.688Z,11.27
2019-04-03T01:05:45.473Z,10.07
2019-04-03T01:10:49.627Z,9.27
2019-04-03T01:15:53.647Z,11.63
2019-04-03T01:20:57.662Z,9.68
2019-04-03T01:26:01.647Z,10.20
2019-04-03T01:31:05.378Z,10.30
2019-04-03T01:36:09.527Z,11.15
2019-04-03T01:41:13.743Z,11.97
2019-04-03T01:46:18.187Z,8.93
2019-04-03T01:51:21.960Z,11.43
2019-04-03T01:56:26.002Z,15.43
2019-04-03T02:01:30.110Z,13.40
2019-04-03T02:06:34.111Z,14.70
2019-04-03T02:11:38.342Z,15.47
2019-04-03T02:16:42.665Z,17.07
2019-04-03T02:21:46.434Z,21.35
2019-04-03T02:26:50.686Z,15.80
2019-04-03T02:31:54.435Z,12.53
2019-04-03T02:36:58.950Z,15.13
2019-04-03T02:47:06.590Z,10.63
2019-04-03T02:52:10.403Z,9.45
2019-04-03T02:57:17.369Z,11.50
2019-04-03T03:02:20.167Z,12.43
2019-04-03T03:07:24.582Z,13.58
2019-04-03T03:12:28.734Z,13.65
2019-04-03T03:17:32.870Z,10.85
2019-04-03T03:22:36.847Z,10.43
2019-04-03T03:27:42.033Z,13.33
2019-04-03T03:32:46.355Z,15.65
2019-04-03T03:37:50.770Z,12.00
2019-04-03T03:42:54.672Z,12.80
2019-04-03T03:47:59.088Z,13.27
2019-04-03T03:53:02.913Z,10.53
2019-04-03T03:58:11.078Z,12.90
2019-04-03T04:03:12.213Z,13.85
2019-04-03T04:08:16.167Z,10.97
2019-04-03T04:13:19.935Z,11.60
2019-04-03T04:18:24.909Z,14.93
2019-04-03T04:23:29.313Z,17.50
2019-04-03T04:28:33.136Z,15.13
2019-04-03T04:33:37.014Z,19.47
2019-04-03T04:38:41.011Z,18.20
2019-04-03T04:43:45.077Z,18.47
2019-04-03T04:48:51.305Z,20.20
2019-04-03T04:53:54.856Z,24.12
2019-04-03T04:58:58.811Z,21.62
2019-04-03T05:04:03.373Z,20.80
2019-04-03T05:09:07.290Z,25.82
2019-04-03T05:14:11.026Z,20.53
2019-04-03T05:19:18.497Z,31.73
2019-04-03T05:24:20.369Z,33.45
2019-04-03T05:29:24.102Z,35.23
2019-04-03T05:34:27.938Z,37.35
2019-04-03T05:39:31.767Z,31.50
2019-04-03T05:44:36.202Z,39.20
2019-04-03T05:49:40.047Z,36.83
2019-04-03T05:54:45.014Z,26.00
2019-04-03T05:59:58.631Z,28.65
2019-04-03T06:04:54.661Z,35.17
2019-04-03T06:09:59.160Z,36.03
2019-04-03T06:15:03.330Z,33.65
2019-04-03T06:20:10.354Z,36.33
2019-04-03T06:25:13.970Z,32.17
2019-04-03T06:30:18.392Z,33.98
2019-04-03T06:40:26.770Z,34.00
2019-04-03T06:50:33.758Z,29.65
2019-04-03T06:55:37.993Z,31.00
2019-04-03T07:00:42.493Z,30.35
2019-04-03T07:10:54.947Z,29.60
2019-04-03T07:15:56.866Z,29.52
2019-04-03T07:21:01.211Z,31.75
2019-04-03T07:26:05.539Z,25.40
2019-04-03T07:31:10.700Z,25.17
2019-04-03T07:36:14.953Z,28.62
2019-04-03T07:41:18.723Z,22.35
2019-04-03T07:46:22.787Z,21.17
2019-04-03T07:51:26.687Z,27.65
2019-04-03T07:56:30.728Z,22.63
2019-04-03T08:01:34.767Z,25.80
2019-04-03T08:06:38.874Z,25.17
2019-04-03T08:11:44.414Z,26.83
2019-04-03T08:16:48.828Z,27.35
2019-04-03T08:21:53.111Z,27.80
2019-04-03T08:26:56.893Z,28.05
2019-04-03T08:32:00.620Z,29.40
2019-04-03T08:37:04.370Z,28.38
2019-04-03T08:42:08.154Z,27.90
2019-04-03T08:47:14.306Z,31.90
2019-04-03T08:52:17.920Z,32.78
2019-04-03T08:57:21.711Z,27.23
2019-04-03T09:02:25.515Z,28.23
2019-04-03T09:07:29.289Z,22.60
2019-04-03T09:12:33.289Z,21.57
2019-04-03T09:17:37.624Z,18.60
2019-04-03T09:22:41.743Z,21.60
2019-04-03T09:27:45.533Z,16.27
2019-04-03T09:32:49.763Z,19.50
2019-04-03T09:37:53.855Z,20.02
2019-04-03T09:42:58.634Z,18.33
2019-04-03T09:48:07.761Z,17.27
2019-04-03T09:53:11.651Z,18.27
2019-04-03T09:58:15.419Z,21.47
2019-04-03T10:03:20.852Z,24.23
2019-04-03T10:08:24.866Z,21.07
2019-04-03T10:13:29.142Z,18.90
2019-04-03T10:18:36.441Z,19.32
2019-04-03T10:23:40.526Z,28.17
2019-04-03T10:28:46.992Z,24.47
2019-04-03T10:33:49.832Z,16.82
2019-04-03T10:38:53.958Z,25.05
2019-04-03T10:43:58.183Z,23.32
2019-04-03T10:49:02.012Z,22.00
2019-04-03T10:54:05.835Z,18.30
2019-04-03T10:59:12.999Z,24.73
2019-04-03T11:04:15.408Z,26.23
2019-04-03T11:09:19.155Z,22.00
2019-04-03T11:14:23.015Z,24.63
2019-04-03T11:19:27.069Z,20.83
2019-04-03T11:24:30.859Z,21.30
2019-04-03T11:29:34.659Z,20.53
2019-04-03T11:34:39.109Z,24.47
2019-04-03T11:39:44.091Z,20.40
2019-04-03T11:44:48.565Z,20.85
2019-04-03T11:49:53.248Z,22.15
2019-04-03T11:54:57.459Z,18.65
2019-04-03T12:00:01.283Z,18.60
2019-04-03T12:05:06.115Z,18.80
2019-04-03T12:10:11.395Z,19.73
2019-04-03T12:15:16.416Z,19.92
2019-04-03T12:20:20.580Z,17.30
2019-04-03T12:25:25.247Z,19.15
